sensor_id;sensor_type;location;lat;lon;timestamp;P1;durP1;ratioP1;P2;durP2;ratioP2
3587;SDS011;1808;53.596;9.972;2023-07-13T00:01:18;0.63;;;0.30;;
3587;SDS011;1808;53.596;9.972;2023-07-13T00:03:45;0.20;;;0.10;;
3587;SDS011;1808;53.596;9.972;2023-07-13T00:06:12;0.00;;;0.00;;
3587;SDS011;1808;53.596;9.972;2023-07-13T00:08:39;0.00;;;0.00;;
3587;SDS011;1808;53.596;9.972;2023-07-13T00:11:06;0.05;;;0.05;;
3587;SDS011;1808;53.596;9.972;2023-07-13T00:13:32;0.65;;;0.65;;
3587;SDS011;1808;53.596;9.972;2023-07-13T00:15:59;2.05;;;0.55;;
3587;SDS011;1808;53.596;9.972;2023-07-13T00:18:26;0.00;;;0.00;;
3587;SDS011;1808;53.596;9.972;2023-07-13T00:20:55;0.25;;;0.22;;
3587;SDS011;1808;53.596;9.972;2023-07-13T00:23:21;0.13;;;0.13;;
3587;SDS011;1808;53.596;9.972;2023-07-13T00:25:49;0.10;;;0.10;;
3587;SDS011;1808;53.596;9.972;2023-07-13T00:28:16;0.00;;;0.00;;
3587;SDS011;1808;53.596;9.972;2023-07-13T00:30:42;0.00;;;0.00;;
3587;SDS011;1808;53.596;9.972;2023-07-13T00:33:09;0.30;;;0.30;;
3587;SDS011;1808;53.596;9.972;2023-07-13T00:35:35;0.00;;;0.00;;
3587;SDS011;1808;53.596;9.972;2023-07-13T00:38:03;0.00;;;0.00;;
3587;SDS011;1808;53.596;9.972;2023-07-13T00:40:29;0.05;;;0.05;;
3587;SDS011;1808;53.596;9.972;2023-07-13T00:42:58;0.10;;;0.10;;
3587;SDS011;1808;53.596;9.972;2023-07-13T00:48:10;1.00;;;0.50;;
3587;SDS011;1808;53.596;9.972;2023-07-13T00:50:36;0.00;;;0.00;;
3587;SDS011;1808;53.596;9.972;2023-07-13T00:53:03;0.10;;;0.10;;
3587;SDS011;1808;53.596;9.972;2023-07-13T00:55:29;0.13;;;0.13;;
3587;SDS011;1808;53.596;9.972;2023-07-13T00:57:56;1.38;;;0.70;;
3587;SDS011;1808;53.596;9.972;2023-07-13T01:00:23;0.10;;;0.10;;
3587;SDS011;1808;53.596;9.972;2023-07-13T01:02:51;0.20;;;0.20;;
3587;SDS011;1808;53.596;9.972;2023-07-13T01:05:18;0.20;;;0.20;;
3587;SDS011;1808;53.596;9.972;2023-07-13T01:07:45;1.73;;;0.45;;
3587;SDS011;1808;53.596;9.972;2023-07-13T01:10:13;1.20;;;0.70;;
3587;SDS011;1808;53.596;9.972;2023-07-13T01:12:39;6.40;;;3.20;;
3587;SDS011;1808;53.596;9.972;2023-07-13T01:15:32;5.20;;;3.13;;
3587;SDS011;1808;53.596;9.972;2023-07-13T01:17:54;3.53;;;1.88;;
3587;SDS011;1808;53.596;9.972;2023-07-13T01:20:20;0.55;;;0.55;;
3587;SDS011;1808;53.596;9.972;2023-07-13T01:22:48;3.95;;;1.77;;
3587;SDS011;1808;53.596;9.972;2023-07-13T01:25:14;0.38;;;0.28;;
3587;SDS011;1808;53.596;9.972;2023-07-13T01:27:40;4.57;;;2.33;;
3587;SDS011;1808;53.596;9.972;2023-07-13T01:30:06;2.65;;;0.90;;
3587;SDS011;1808;53.596;9.972;2023-07-13T01:32:33;2.25;;;1.48;;
3587;SDS011;1808;53.596;9.972;2023-07-13T01:34:59;0.10;;;0.10;;
3587;SDS011;1808;53.596;9.972;2023-07-13T01:37:26;4.28;;;2.83;;
3587;SDS011;1808;53.596;9.972;2023-07-13T01:39:53;2.55;;;1.75;;
3587;SDS011;1808;53.596;9.972;2023-07-13T01:42:19;0.85;;;0.52;;
3587;SDS011;1808;53.596;9.972;2023-07-13T01:44:46;13.57;;;1.38;;
3587;SDS011;1808;53.596;9.972;2023-07-13T01:47:12;0.10;;;0.10;;
3587;SDS011;1808;53.596;9.972;2023-07-13T01:49:38;0.98;;;0.63;;
3587;SDS011;1808;53.596;9.972;2023-07-13T01:52:06;12.20;;;1.90;;
3587;SDS011;1808;53.596;9.972;2023-07-13T01:54:32;0.15;;;0.15;;
3587;SDS011;1808;53.596;9.972;2023-07-13T01:57:00;0.35;;;0.35;;
3587;SDS011;1808;53.596;9.972;2023-07-13T01:59:26;5.47;;;2.92;;
3587;SDS011;1808;53.596;9.972;2023-07-13T02:01:53;4.80;;;2.03;;
3587;SDS011;1808;53.596;9.972;2023-07-13T02:04:19;0.00;;;0.00;;
3587;SDS011;1808;53.596;9.972;2023-07-13T02:06:45;0.10;;;0.10;;
3587;SDS011;1808;53.596;9.972;2023-07-13T02:09:11;0.60;;;0.45;;
3587;SDS011;1808;53.596;9.972;2023-07-13T02:11:37;5.18;;;2.85;;
3587;SDS011;1808;53.596;9.972;2023-07-13T02:14:05;2.72;;;1.35;;
3587;SDS011;1808;53.596;9.972;2023-07-13T02:16:31;0.10;;;0.10;;
3587;SDS011;1808;53.596;9.972;2023-07-13T02:18:57;1.30;;;1.20;;
3587;SDS011;1808;53.596;9.972;2023-07-13T02:21:25;0.28;;;0.10;;
3587;SDS011;1808;53.596;9.972;2023-07-13T02:23:51;0.70;;;0.45;;
3587;SDS011;1808;53.596;9.972;2023-07-13T02:26:18;0.90;;;0.70;;
3587;SDS011;1808;53.596;9.972;2023-07-13T02:28:45;2.50;;;1.42;;
3587;SDS011;1808;53.596;9.972;2023-07-13T02:31:13;2.03;;;1.50;;
3587;SDS011;1808;53.596;9.972;2023-07-13T02:33:39;2.92;;;1.85;;
3587;SDS011;1808;53.596;9.972;2023-07-13T02:36:06;0.40;;;0.25;;
3587;SDS011;1808;53.596;9.972;2023-07-13T02:38:32;0.32;;;0.25;;
3587;SDS011;1808;53.596;9.972;2023-07-13T02:40:59;9.02;;;4.10;;
3587;SDS011;1808;53.596;9.972;2023-07-13T02:43:26;8.05;;;4.20;;
3587;SDS011;1808;53.596;9.972;2023-07-13T02:45:52;4.00;;;1.88;;
3587;SDS011;1808;53.596;9.972;2023-07-13T02:48:20;15.80;;;5.97;;
3587;SDS011;1808;53.596;9.972;2023-07-13T02:50:46;9.93;;;5.25;;
3587;SDS011;1808;53.596;9.972;2023-07-13T02:53:12;3.30;;;2.08;;
3587;SDS011;1808;53.596;9.972;2023-07-13T02:55:38;7.57;;;4.40;;
3587;SDS011;1808;53.596;9.972;2023-07-13T02:58:05;8.77;;;4.43;;
3587;SDS011;1808;53.596;9.972;2023-07-13T03:00:31;2.33;;;1.17;;
3587;SDS011;1808;53.596;9.972;2023-07-13T03:02:58;0.20;;;0.20;;
3587;SDS011;1808;53.596;9.972;2023-07-13T03:05:26;0.82;;;0.80;;
3587;SDS011;1808;53.596;9.972;2023-07-13T03:07:52;0.10;;;0.10;;
3587;SDS011;1808;53.596;9.972;2023-07-13T03:10:19;2.45;;;1.45;;
3587;SDS011;1808;53.596;9.972;2023-07-13T03:12:45;2.53;;;1.65;;
3587;SDS011;1808;53.596;9.972;2023-07-13T03:15:11;0.05;;;0.05;;
3587;SDS011;1808;53.596;9.972;2023-07-13T03:17:37;2.47;;;1.42;;
3587;SDS011;1808;53.596;9.972;2023-07-13T03:20:04;0.85;;;0.60;;
3587;SDS011;1808;53.596;9.972;2023-07-13T03:22:32;0.22;;;0.22;;
3587;SDS011;1808;53.596;9.972;2023-07-13T03:24:59;1.95;;;1.25;;
3587;SDS011;1808;53.596;9.972;2023-07-13T03:27:25;0.95;;;0.63;;
3587;SDS011;1808;53.596;9.972;2023-07-13T03:29:51;0.85;;;0.55;;
3587;SDS011;1808;53.596;9.972;2023-07-13T03:32:17;0.85;;;0.68;;
3587;SDS011;1808;53.596;9.972;2023-07-13T03:34:43;0.00;;;0.00;;
3587;SDS011;1808;53.596;9.972;2023-07-13T03:37:10;8.90;;;4.40;;
3587;SDS011;1808;53.596;9.972;2023-07-13T03:39:37;8.88;;;4.30;;
3587;SDS011;1808;53.596;9.972;2023-07-13T03:42:04;12.13;;;6.05;;
3587;SDS011;1808;53.596;9.972;2023-07-13T03:44:30;11.32;;;5.53;;
3587;SDS011;1808;53.596;9.972;2023-07-13T03:46:56;13.48;;;5.78;;
3587;SDS011;1808;53.596;9.972;2023-07-13T03:49:22;8.43;;;4.93;;
3587;SDS011;1808;53.596;9.972;2023-07-13T03:51:49;10.10;;;5.22;;
3587;SDS011;1808;53.596;9.972;2023-07-13T03:54:15;11.80;;;6.47;;
3587;SDS011;1808;53.596;9.972;2023-07-13T03:56:42;11.57;;;6.07;;
3587;SDS011;1808;53.596;9.972;2023-07-13T03:59:08;12.32;;;5.97;;
3587;SDS011;1808;53.596;9.972;2023-07-13T04:01:35;13.52;;;7.03;;
3587;SDS011;1808;53.596;9.972;2023-07-13T04:04:01;11.57;;;6.18;;
3587;SDS011;1808;53.596;9.972;2023-07-13T04:06:28;9.57;;;5.57;;
3587;SDS011;1808;53.596;9.972;2023-07-13T04:08:55;8.98;;;5.53;;
3587;SDS011;1808;53.596;9.972;2023-07-13T04:11:22;9.43;;;5.47;;
3587;SDS011;1808;53.596;9.972;2023-07-13T04:13:50;4.38;;;2.95;;
3587;SDS011;1808;53.596;9.972;2023-07-13T04:16:17;0.73;;;0.55;;
3587;SDS011;1808;53.596;9.972;2023-07-13T04:18:43;1.80;;;0.93;;
3587;SDS011;1808;53.596;9.972;2023-07-13T04:21:09;1.70;;;1.13;;
3587;SDS011;1808;53.596;9.972;2023-07-13T04:23:36;2.30;;;1.15;;
3587;SDS011;1808;53.596;9.972;2023-07-13T04:26:02;0.52;;;0.32;;
3587;SDS011;1808;53.596;9.972;2023-07-13T04:28:28;0.50;;;0.50;;
3587;SDS011;1808;53.596;9.972;2023-07-13T04:30:56;0.63;;;0.52;;
3587;SDS011;1808;53.596;9.972;2023-07-13T04:33:23;2.03;;;1.33;;
3587;SDS011;1808;53.596;9.972;2023-07-13T04:35:49;0.35;;;0.32;;
3587;SDS011;1808;53.596;9.972;2023-07-13T04:38:21;2.90;;;1.63;;
3587;SDS011;1808;53.596;9.972;2023-07-13T04:40:47;0.85;;;0.47;;
3587;SDS011;1808;53.596;9.972;2023-07-13T04:43:14;7.80;;;1.55;;
3587;SDS011;1808;53.596;9.972;2023-07-13T04:45:40;5.78;;;2.83;;
3587;SDS011;1808;53.596;9.972;2023-07-13T04:48:08;7.68;;;1.15;;
3587;SDS011;1808;53.596;9.972;2023-07-13T04:50:35;3.08;;;1.08;;
3587;SDS011;1808;53.596;9.972;2023-07-13T04:53:02;1.65;;;1.00;;
3587;SDS011;1808;53.596;9.972;2023-07-13T04:55:29;0.55;;;0.40;;
3587;SDS011;1808;53.596;9.972;2023-07-13T04:57:55;0.20;;;0.20;;
3587;SDS011;1808;53.596;9.972;2023-07-13T05:00:23;1.50;;;0.43;;
3587;SDS011;1808;53.596;9.972;2023-07-13T05:02:49;0.85;;;0.75;;
3587;SDS011;1808;53.596;9.972;2023-07-13T05:05:17;1.42;;;0.70;;
3587;SDS011;1808;53.596;9.972;2023-07-13T05:07:43;1.50;;;0.85;;
3587;SDS011;1808;53.596;9.972;2023-07-13T05:10:10;1.52;;;1.02;;
3587;SDS011;1808;53.596;9.972;2023-07-13T05:12:36;7.25;;;2.10;;
3587;SDS011;1808;53.596;9.972;2023-07-13T05:15:02;2.78;;;1.58;;
3587;SDS011;1808;53.596;9.972;2023-07-13T05:17:29;4.57;;;2.35;;
3587;SDS011;1808;53.596;9.972;2023-07-13T05:19:55;5.38;;;3.45;;
3587;SDS011;1808;53.596;9.972;2023-07-13T05:22:23;7.88;;;3.67;;
3587;SDS011;1808;53.596;9.972;2023-07-13T05:24:49;10.27;;;4.00;;
3587;SDS011;1808;53.596;9.972;2023-07-13T05:27:15;0.90;;;0.63;;
3587;SDS011;1808;53.596;9.972;2023-07-13T05:29:41;2.58;;;1.33;;
3587;SDS011;1808;53.596;9.972;2023-07-13T05:32:07;2.90;;;1.98;;
3587;SDS011;1808;53.596;9.972;2023-07-13T05:34:33;12.88;;;5.97;;
3587;SDS011;1808;53.596;9.972;2023-07-13T05:37:00;3.30;;;0.55;;
3587;SDS011;1808;53.596;9.972;2023-07-13T05:39:27;3.38;;;1.65;;
3587;SDS011;1808;53.596;9.972;2023-07-13T05:41:54;1.15;;;0.75;;
3587;SDS011;1808;53.596;9.972;2023-07-13T05:44:20;5.85;;;2.35;;
3587;SDS011;1808;53.596;9.972;2023-07-13T05:46:46;3.85;;;1.35;;
3587;SDS011;1808;53.596;9.972;2023-07-13T05:49:12;10.18;;;3.22;;
3587;SDS011;1808;53.596;9.972;2023-07-13T05:51:38;1.10;;;1.00;;
3587;SDS011;1808;53.596;9.972;2023-07-13T05:54:04;2.28;;;1.52;;
3587;SDS011;1808;53.596;9.972;2023-07-13T05:56:32;21.75;;;2.33;;
3587;SDS011;1808;53.596;9.972;2023-07-13T05:58:58;3.88;;;2.65;;
3587;SDS011;1808;53.596;9.972;2023-07-13T06:01:24;3.25;;;1.42;;
3587;SDS011;1808;53.596;9.972;2023-07-13T06:03:51;4.15;;;1.92;;
3587;SDS011;1808;53.596;9.972;2023-07-13T06:06:17;1.52;;;0.88;;
3587;SDS011;1808;53.596;9.972;2023-07-13T06:08:43;6.72;;;1.80;;
3587;SDS011;1808;53.596;9.972;2023-07-13T06:11:11;6.35;;;0.57;;
3587;SDS011;1808;53.596;9.972;2023-07-13T06:13:39;2.97;;;1.48;;
3587;SDS011;1808;53.596;9.972;2023-07-13T06:16:06;5.43;;;2.75;;
3587;SDS011;1808;53.596;9.972;2023-07-13T06:18:33;5.70;;;1.88;;
3587;SDS011;1808;53.596;9.972;2023-07-13T06:21:01;6.25;;;2.70;;
3587;SDS011;1808;53.596;9.972;2023-07-13T06:23:27;5.05;;;1.20;;
3587;SDS011;1808;53.596;9.972;2023-07-13T06:25:53;3.03;;;1.42;;
3587;SDS011;1808;53.596;9.972;2023-07-13T06:28:19;2.67;;;1.50;;
3587;SDS011;1808;53.596;9.972;2023-07-13T06:30:47;9.80;;;2.53;;
3587;SDS011;1808;53.596;9.972;2023-07-13T06:33:13;2.13;;;1.23;;
3587;SDS011;1808;53.596;9.972;2023-07-13T06:35:39;4.10;;;1.45;;
3587;SDS011;1808;53.596;9.972;2023-07-13T06:38:05;1.75;;;0.88;;
3587;SDS011;1808;53.596;9.972;2023-07-13T06:40:31;2.92;;;2.00;;
3587;SDS011;1808;53.596;9.972;2023-07-13T06:42:58;6.45;;;3.42;;
3587;SDS011;1808;53.596;9.972;2023-07-13T06:45:24;2.30;;;1.15;;
3587;SDS011;1808;53.596;9.972;2023-07-13T06:47:52;4.20;;;1.95;;
3587;SDS011;1808;53.596;9.972;2023-07-13T06:50:18;10.23;;;2.92;;
3587;SDS011;1808;53.596;9.972;2023-07-13T06:52:45;6.85;;;2.70;;
3587;SDS011;1808;53.596;9.972;2023-07-13T06:55:11;3.95;;;1.30;;
3587;SDS011;1808;53.596;9.972;2023-07-13T06:57:37;8.38;;;2.72;;
3587;SDS011;1808;53.596;9.972;2023-07-13T07:00:03;4.28;;;1.17;;
3587;SDS011;1808;53.596;9.972;2023-07-13T07:02:31;10.27;;;2.90;;
3587;SDS011;1808;53.596;9.972;2023-07-13T07:04:59;2.38;;;1.08;;
3587;SDS011;1808;53.596;9.972;2023-07-13T07:07:26;7.03;;;1.98;;
3587;SDS011;1808;53.596;9.972;2023-07-13T07:09:52;2.00;;;0.95;;
3587;SDS011;1808;53.596;9.972;2023-07-13T07:12:18;8.70;;;1.80;;
3587;SDS011;1808;53.596;9.972;2023-07-13T07:14:44;12.13;;;2.83;;
3587;SDS011;1808;53.596;9.972;2023-07-13T07:17:11;8.18;;;2.25;;
3587;SDS011;1808;53.596;9.972;2023-07-13T07:19:38;1.25;;;0.65;;
3587;SDS011;1808;53.596;9.972;2023-07-13T07:22:06;14.85;;;2.95;;
3587;SDS011;1808;53.596;9.972;2023-07-13T07:24:33;9.30;;;2.97;;
3587;SDS011;1808;53.596;9.972;2023-07-13T07:26:59;9.98;;;2.70;;
3587;SDS011;1808;53.596;9.972;2023-07-13T07:29:25;9.48;;;3.13;;
3587;SDS011;1808;53.596;9.972;2023-07-13T07:31:52;10.98;;;2.97;;
3587;SDS011;1808;53.596;9.972;2023-07-13T07:34:19;6.03;;;2.08;;
3587;SDS011;1808;53.596;9.972;2023-07-13T07:36:45;7.65;;;2.50;;
3587;SDS011;1808;53.596;9.972;2023-07-13T07:39:12;7.38;;;3.13;;
3587;SDS011;1808;53.596;9.972;2023-07-13T07:41:39;9.05;;;3.38;;
3587;SDS011;1808;53.596;9.972;2023-07-13T07:44:05;4.38;;;1.50;;
3587;SDS011;1808;53.596;9.972;2023-07-13T07:46:32;1.17;;;0.65;;
3587;SDS011;1808;53.596;9.972;2023-07-13T07:48:58;9.65;;;2.85;;
3587;SDS011;1808;53.596;9.972;2023-07-13T07:51:24;6.47;;;2.38;;
3587;SDS011;1808;53.596;9.972;2023-07-13T07:53:51;7.63;;;2.25;;
3587;SDS011;1808;53.596;9.972;2023-07-13T07:56:18;6.68;;;2.33;;
3587;SDS011;1808;53.596;9.972;2023-07-13T07:58:45;8.40;;;2.50;;
3587;SDS011;1808;53.596;9.972;2023-07-13T08:01:11;4.00;;;2.55;;
3587;SDS011;1808;53.596;9.972;2023-07-13T08:03:37;6.85;;;3.53;;
3587;SDS011;1808;53.596;9.972;2023-07-13T08:06:03;7.53;;;2.67;;
3587;SDS011;1808;53.596;9.972;2023-07-13T08:08:29;11.02;;;2.90;;
3587;SDS011;1808;53.596;9.972;2023-07-13T08:10:55;9.73;;;3.45;;
3587;SDS011;1808;53.596;9.972;2023-07-13T08:13:23;5.07;;;2.40;;
3587;SDS011;1808;53.596;9.972;2023-07-13T08:15:49;8.75;;;2.17;;
3587;SDS011;1808;53.596;9.972;2023-07-13T08:18:16;7.28;;;2.35;;
3587;SDS011;1808;53.596;9.972;2023-07-13T08:20:42;5.10;;;2.30;;
3587;SDS011;1808;53.596;9.972;2023-07-13T08:23:09;4.03;;;2.53;;
3587;SDS011;1808;53.596;9.972;2023-07-13T08:25:35;7.80;;;2.40;;
3587;SDS011;1808;53.596;9.972;2023-07-13T08:28:01;12.05;;;1.65;;
3587;SDS011;1808;53.596;9.972;2023-07-13T08:30:29;9.55;;;2.88;;
3587;SDS011;1808;53.596;9.972;2023-07-13T08:32:55;7.80;;;2.58;;
3587;SDS011;1808;53.596;9.972;2023-07-13T08:35:21;5.47;;;1.85;;
3587;SDS011;1808;53.596;9.972;2023-07-13T08:37:48;0.20;;;0.20;;
3587;SDS011;1808;53.596;9.972;2023-07-13T08:40:14;3.90;;;1.58;;
3587;SDS011;1808;53.596;9.972;2023-07-13T08:42:42;12.45;;;2.63;;
3587;SDS011;1808;53.596;9.972;2023-07-13T08:45:13;5.78;;;2.20;;
3587;SDS011;1808;53.596;9.972;2023-07-13T08:47:44;3.63;;;1.30;;
3587;SDS011;1808;53.596;9.972;2023-07-13T08:50:11;1.52;;;0.95;;
3587;SDS011;1808;53.596;9.972;2023-07-13T08:52:39;4.88;;;1.88;;
3587;SDS011;1808;53.596;9.972;2023-07-13T08:55:09;4.10;;;1.17;;
3587;SDS011;1808;53.596;9.972;2023-07-13T08:57:37;8.38;;;1.88;;
3587;SDS011;1808;53.596;9.972;2023-07-13T09:00:07;0.93;;;0.40;;
3587;SDS011;1808;53.596;9.972;2023-07-13T09:02:39;10.75;;;2.45;;
3587;SDS011;1808;53.596;9.972;2023-07-13T09:05:10;6.43;;;3.10;;
3587;SDS011;1808;53.596;9.972;2023-07-13T09:07:40;3.30;;;1.23;;
3587;SDS011;1808;53.596;9.972;2023-07-13T09:10:11;7.72;;;2.60;;
3587;SDS011;1808;53.596;9.972;2023-07-13T09:12:40;4.18;;;2.00;;
3587;SDS011;1808;53.596;9.972;2023-07-13T09:15:14;7.13;;;2.20;;
3587;SDS011;1808;53.596;9.972;2023-07-13T09:17:45;4.47;;;1.58;;
3587;SDS011;1808;53.596;9.972;2023-07-13T09:20:17;5.75;;;1.63;;
3587;SDS011;1808;53.596;9.972;2023-07-13T09:22:45;3.10;;;1.73;;
3587;SDS011;1808;53.596;9.972;2023-07-13T09:25:18;4.13;;;1.55;;
3587;SDS011;1808;53.596;9.972;2023-07-13T09:27:47;5.35;;;1.92;;
3587;SDS011;1808;53.596;9.972;2023-07-13T09:30:18;0.55;;;0.38;;
3587;SDS011;1808;53.596;9.972;2023-07-13T09:32:50;4.82;;;2.20;;
3587;SDS011;1808;53.596;9.972;2023-07-13T09:35:19;10.55;;;2.92;;
3587;SDS011;1808;53.596;9.972;2023-07-13T09:37:46;4.25;;;2.00;;
3587;SDS011;1808;53.596;9.972;2023-07-13T09:40:13;4.18;;;1.52;;
3587;SDS011;1808;53.596;9.972;2023-07-13T09:42:43;2.42;;;1.67;;
3587;SDS011;1808;53.596;9.972;2023-07-13T09:45:09;4.25;;;2.17;;
3587;SDS011;1808;53.596;9.972;2023-07-13T09:47:38;7.82;;;2.28;;
3587;SDS011;1808;53.596;9.972;2023-07-13T09:50:06;1.70;;;1.15;;
3587;SDS011;1808;53.596;9.972;2023-07-13T09:52:42;3.85;;;1.83;;
3587;SDS011;1808;53.596;9.972;2023-07-13T09:55:22;20.17;;;1.80;;
3587;SDS011;1808;53.596;9.972;2023-07-13T09:57:49;2.72;;;1.00;;
3587;SDS011;1808;53.596;9.972;2023-07-13T10:00:19;0.10;;;0.10;;
3587;SDS011;1808;53.596;9.972;2023-07-13T10:02:46;3.13;;;2.08;;
3587;SDS011;1808;53.596;9.972;2023-07-13T10:05:24;0.35;;;0.32;;
3587;SDS011;1808;53.596;9.972;2023-07-13T10:07:52;4.07;;;1.00;;
3587;SDS011;1808;53.596;9.972;2023-07-13T10:10:22;0.95;;;0.55;;
3587;SDS011;1808;53.596;9.972;2023-07-13T10:12:49;3.13;;;0.90;;
3587;SDS011;1808;53.596;9.972;2023-07-13T10:15:16;1.15;;;0.63;;
3587;SDS011;1808;53.596;9.972;2023-07-13T10:17:43;4.20;;;1.15;;
3587;SDS011;1808;53.596;9.972;2023-07-13T10:20:10;3.50;;;1.75;;
3587;SDS011;1808;53.596;9.972;2023-07-13T10:22:39;0.50;;;0.32;;
3587;SDS011;1808;53.596;9.972;2023-07-13T10:25:15;1.08;;;0.90;;
3587;SDS011;1808;53.596;9.972;2023-07-13T10:27:43;4.15;;;1.75;;
3587;SDS011;1808;53.596;9.972;2023-07-13T10:30:12;4.93;;;1.13;;
3587;SDS011;1808;53.596;9.972;2023-07-13T10:32:39;6.90;;;2.25;;
3587;SDS011;1808;53.596;9.972;2023-07-13T10:35:08;5.85;;;2.25;;
3587;SDS011;1808;53.596;9.972;2023-07-13T10:37:36;5.53;;;2.53;;
3587;SDS011;1808;53.596;9.972;2023-07-13T10:40:04;6.18;;;2.40;;
3587;SDS011;1808;53.596;9.972;2023-07-13T10:42:33;6.70;;;2.80;;
3587;SDS011;1808;53.596;9.972;2023-07-13T10:45:01;4.28;;;2.08;;
3587;SDS011;1808;53.596;9.972;2023-07-13T10:47:27;5.45;;;1.77;;
3587;SDS011;1808;53.596;9.972;2023-07-13T10:49:54;6.97;;;2.30;;
3587;SDS011;1808;53.596;9.972;2023-07-13T10:52:40;8.50;;;2.53;;
3587;SDS011;1808;53.596;9.972;2023-07-13T10:55:11;4.35;;;1.60;;
3587;SDS011;1808;53.596;9.972;2023-07-13T10:57:59;10.75;;;2.17;;
3587;SDS011;1808;53.596;9.972;2023-07-13T11:00:26;4.10;;;1.13;;
3587;SDS011;1808;53.596;9.972;2023-07-13T11:02:56;1.30;;;0.65;;
3587;SDS011;1808;53.596;9.972;2023-07-13T11:05:25;0.55;;;0.22;;
3587;SDS011;1808;53.596;9.972;2023-07-13T11:07:55;1.27;;;0.75;;
3587;SDS011;1808;53.596;9.972;2023-07-13T11:13:27;1.88;;;0.30;;
3587;SDS011;1808;53.596;9.972;2023-07-13T11:15:51;1.13;;;0.38;;
3587;SDS011;1808;53.596;9.972;2023-07-13T11:18:21;2.55;;;1.35;;
3587;SDS011;1808;53.596;9.972;2023-07-13T11:20:47;2.10;;;0.80;;
3587;SDS011;1808;53.596;9.972;2023-07-13T11:23:19;1.25;;;0.57;;
3587;SDS011;1808;53.596;9.972;2023-07-13T11:25:46;3.92;;;1.20;;
3587;SDS011;1808;53.596;9.972;2023-07-13T11:28:16;2.22;;;0.82;;
3587;SDS011;1808;53.596;9.972;2023-07-13T11:30:43;4.00;;;1.60;;
3587;SDS011;1808;53.596;9.972;2023-07-13T11:33:13;5.20;;;2.00;;
3587;SDS011;1808;53.596;9.972;2023-07-13T11:35:42;6.00;;;1.88;;
3587;SDS011;1808;53.596;9.972;2023-07-13T11:38:12;2.65;;;1.48;;
3587;SDS011;1808;53.596;9.972;2023-07-13T11:40:40;3.45;;;1.80;;
3587;SDS011;1808;53.596;9.972;2023-07-13T11:43:07;3.70;;;0.90;;
3587;SDS011;1808;53.596;9.972;2023-07-13T11:45:34;3.78;;;1.92;;
3587;SDS011;1808;53.596;9.972;2023-07-13T11:48:01;1.15;;;0.65;;
3587;SDS011;1808;53.596;9.972;2023-07-13T11:50:27;0.90;;;0.65;;
3587;SDS011;1808;53.596;9.972;2023-07-13T11:52:53;2.67;;;1.10;;
3587;SDS011;1808;53.596;9.972;2023-07-13T11:55:21;3.10;;;1.30;;
3587;SDS011;1808;53.596;9.972;2023-07-13T11:57:49;3.75;;;1.50;;
3587;SDS011;1808;53.596;9.972;2023-07-13T12:00:17;0.30;;;0.30;;
3587;SDS011;1808;53.596;9.972;2023-07-13T12:02:46;0.40;;;0.40;;
3587;SDS011;1808;53.596;9.972;2023-07-13T12:05:14;6.90;;;1.15;;
3587;SDS011;1808;53.596;9.972;2023-07-13T12:07:42;0.57;;;0.35;;
3587;SDS011;1808;53.596;9.972;2023-07-13T12:10:15;1.80;;;1.45;;
3587;SDS011;1808;53.596;9.972;2023-07-13T12:12:46;4.57;;;1.63;;
3587;SDS011;1808;53.596;9.972;2023-07-13T12:15:13;3.25;;;1.35;;
3587;SDS011;1808;53.596;9.972;2023-07-13T12:17:40;3.63;;;1.38;;
3587;SDS011;1808;53.596;9.972;2023-07-13T12:20:13;7.90;;;3.15;;
3587;SDS011;1808;53.596;9.972;2023-07-13T12:22:45;13.05;;;2.85;;
3587;SDS011;1808;53.596;9.972;2023-07-13T12:25:11;9.70;;;3.50;;
3587;SDS011;1808;53.596;9.972;2023-07-13T12:27:38;1.75;;;1.23;;
3587;SDS011;1808;53.596;9.972;2023-07-13T12:30:06;7.07;;;2.90;;
3587;SDS011;1808;53.596;9.972;2023-07-13T12:32:54;7.40;;;3.03;;
3587;SDS011;1808;53.596;9.972;2023-07-13T12:35:22;5.90;;;2.88;;
3587;SDS011;1808;53.596;9.972;2023-07-13T12:37:50;8.40;;;3.00;;
3587;SDS011;1808;53.596;9.972;2023-07-13T12:40:17;4.05;;;2.20;;
3587;SDS011;1808;53.596;9.972;2023-07-13T12:42:47;6.40;;;3.33;;
3587;SDS011;1808;53.596;9.972;2023-07-13T12:45:17;7.07;;;3.20;;
3587;SDS011;1808;53.596;9.972;2023-07-13T12:47:47;7.68;;;3.40;;
3587;SDS011;1808;53.596;9.972;2023-07-13T12:50:14;8.35;;;2.20;;
3587;SDS011;1808;53.596;9.972;2023-07-13T12:52:42;10.88;;;3.38;;
3587;SDS011;1808;53.596;9.972;2023-07-13T12:55:11;5.60;;;3.10;;
3587;SDS011;1808;53.596;9.972;2023-07-13T12:57:40;8.23;;;4.13;;
3587;SDS011;1808;53.596;9.972;2023-07-13T13:00:13;6.63;;;3.22;;
3587;SDS011;1808;53.596;9.972;2023-07-13T13:02:45;10.10;;;3.85;;
3587;SDS011;1808;53.596;9.972;2023-07-13T13:05:15;6.07;;;3.10;;
3587;SDS011;1808;53.596;9.972;2023-07-13T13:07:42;4.85;;;2.95;;
3587;SDS011;1808;53.596;9.972;2023-07-13T13:10:12;6.65;;;2.25;;
3587;SDS011;1808;53.596;9.972;2023-07-13T13:12:38;2.00;;;1.17;;
3587;SDS011;1808;53.596;9.972;2023-07-13T13:15:07;6.07;;;1.80;;
3587;SDS011;1808;53.596;9.972;2023-07-13T13:17:34;0.50;;;0.50;;
3587;SDS011;1808;53.596;9.972;2023-07-13T13:20:00;4.78;;;1.65;;
3587;SDS011;1808;53.596;9.972;2023-07-13T13:22:26;4.70;;;1.60;;
3587;SDS011;1808;53.596;9.972;2023-07-13T13:24:54;2.33;;;1.38;;
3587;SDS011;1808;53.596;9.972;2023-07-13T13:27:21;4.60;;;1.65;;
3587;SDS011;1808;53.596;9.972;2023-07-13T13:29:49;2.85;;;1.60;;
3587;SDS011;1808;53.596;9.972;2023-07-13T13:32:16;4.93;;;1.92;;
3587;SDS011;1808;53.596;9.972;2023-07-13T13:34:44;3.28;;;1.58;;
3587;SDS011;1808;53.596;9.972;2023-07-13T13:37:16;4.40;;;1.63;;
3587;SDS011;1808;53.596;9.972;2023-07-13T13:39:43;4.57;;;1.58;;
3587;SDS011;1808;53.596;9.972;2023-07-13T13:42:11;3.95;;;1.70;;
3587;SDS011;1808;53.596;9.972;2023-07-13T13:44:37;4.43;;;1.80;;
3587;SDS011;1808;53.596;9.972;2023-07-13T13:47:07;4.75;;;2.10;;
3587;SDS011;1808;53.596;9.972;2023-07-13T13:49:43;2.75;;;1.35;;
3587;SDS011;1808;53.596;9.972;2023-07-13T13:52:09;4.07;;;1.70;;
3587;SDS011;1808;53.596;9.972;2023-07-13T13:54:35;5.50;;;1.85;;
3587;SDS011;1808;53.596;9.972;2023-07-13T13:57:02;3.35;;;1.70;;
3587;SDS011;1808;53.596;9.972;2023-07-13T13:59:31;5.97;;;2.10;;
3587;SDS011;1808;53.596;9.972;2023-07-13T14:04:38;3.25;;;1.58;;
3587;SDS011;1808;53.596;9.972;2023-07-13T14:07:04;5.00;;;2.10;;
3587;SDS011;1808;53.596;9.972;2023-07-13T14:09:30;3.97;;;1.65;;
3587;SDS011;1808;53.596;9.972;2023-07-13T14:11:56;3.25;;;1.52;;
3587;SDS011;1808;53.596;9.972;2023-07-13T14:14:23;2.67;;;1.50;;
3587;SDS011;1808;53.596;9.972;2023-07-13T14:16:52;4.13;;;1.63;;
3587;SDS011;1808;53.596;9.972;2023-07-13T14:19:20;4.78;;;1.80;;
3587;SDS011;1808;53.596;9.972;2023-07-13T14:21:46;3.28;;;1.90;;
3587;SDS011;1808;53.596;9.972;2023-07-13T14:24:14;5.55;;;2.28;;
3587;SDS011;1808;53.596;9.972;2023-07-13T14:26:41;3.72;;;2.20;;
3587;SDS011;1808;53.596;9.972;2023-07-13T14:29:11;4.35;;;1.90;;
3587;SDS011;1808;53.596;9.972;2023-07-13T14:31:38;3.20;;;2.00;;
3587;SDS011;1808;53.596;9.972;2023-07-13T14:34:07;6.00;;;2.47;;
3587;SDS011;1808;53.596;9.972;2023-07-13T14:36:33;6.45;;;1.73;;
3587;SDS011;1808;53.596;9.972;2023-07-13T14:39:00;3.78;;;2.30;;
3587;SDS011;1808;53.596;9.972;2023-07-13T14:41:27;5.07;;;2.22;;
3587;SDS011;1808;53.596;9.972;2023-07-13T14:43:53;5.45;;;2.17;;
3587;SDS011;1808;53.596;9.972;2023-07-13T14:46:22;5.85;;;2.28;;
3587;SDS011;1808;53.596;9.972;2023-07-13T14:48:50;5.57;;;1.90;;
3587;SDS011;1808;53.596;9.972;2023-07-13T14:51:18;4.35;;;2.20;;
3587;SDS011;1808;53.596;9.972;2023-07-13T14:53:44;3.40;;;2.00;;
3587;SDS011;1808;53.596;9.972;2023-07-13T14:56:10;3.58;;;2.15;;
3587;SDS011;1808;53.596;9.972;2023-07-13T14:58:37;4.38;;;2.13;;
3587;SDS011;1808;53.596;9.972;2023-07-13T15:01:07;4.53;;;2.47;;
3587;SDS011;1808;53.596;9.972;2023-07-13T15:03:34;5.10;;;2.30;;
3587;SDS011;1808;53.596;9.972;2023-07-13T15:06:00;3.85;;;1.75;;
3587;SDS011;1808;53.596;9.972;2023-07-13T15:08:29;4.00;;;2.10;;
3587;SDS011;1808;53.596;9.972;2023-07-13T15:10:55;3.30;;;2.03;;
3587;SDS011;1808;53.596;9.972;2023-07-13T15:13:25;5.43;;;2.53;;
3587;SDS011;1808;53.596;9.972;2023-07-13T15:15:51;1.60;;;0.93;;
3587;SDS011;1808;53.596;9.972;2023-07-13T15:18:18;5.13;;;2.33;;
3587;SDS011;1808;53.596;9.972;2023-07-13T15:20:45;0.35;;;0.30;;
3587;SDS011;1808;53.596;9.972;2023-07-13T15:23:12;2.65;;;0.60;;
3587;SDS011;1808;53.596;9.972;2023-07-13T15:25:41;0.88;;;0.43;;